Time;durP1;ratioP1;P1;durP2;ratioP2;P2;SDS_P1;SDS_P2;PMS_P1;PMS_P2;Temp;Humidity;BMP_temperature;BMP_pressure;BME280_temperature;BME280_humidity;BME280_pressure;Samples;Min_cycle;Max_cycle;Signal;HPM_P1;HPM_P2
2021/11/22 00:02:11;;;;;;;1.13;0.70;;;;;;;;;;5087676;28;20039;-64
2021/11/22 00:04:37;;;;;;;1.77;1.23;;;;;;;;;;5090289;28;20020;-63
2021/11/22 00:07:04;;;;;;;1.23;0.83;;;;;;;;;;5091975;28;20027;-63
2021/11/22 00:09:33;;;;;;;4.13;1.10;;;;;;;;;;5086104;28;20073;-63
2021/11/22 00:12:00;;;;;;;2.17;0.93;;;;;;;;;;5092543;28;20016;-65
2021/11/22 00:14:27;;;;;;;1.93;1.00;;;;;;;;;;5092847;28;20017;-63
2021/11/22 00:16:54;;;;;;;2.30;0.90;;;;;;;;;;5089481;28;20117;-66
2021/11/22 00:19:20;;;;;;;3.50;1.20;;;;;;;;;;5087515;28;20039;-62
2021/11/22 00:21:47;;;;;;;4.83;1.00;;;;;;;;;;5086943;28;20455;-62
2021/11/22 00:24:15;;;;;;;1.80;1.00;;;;;;;;;;5086801;28;20039;-65
2021/11/22 00:26:41;;;;;;;2.13;1.13;;;;;;;;;;5071134;28;20031;-64
2021/11/22 00:29:08;;;;;;;1.00;0.70;;;;;;;;;;5071420;28;20086;-63
2021/11/22 00:31:35;;;;;;;1.27;0.70;;;;;;;;;;5072464;28;20117;-65
2021/11/22 00:34:03;;;;;;;3.00;1.23;;;;;;;;;;5072027;28;20411;-64
2021/11/22 00:36:30;;;;;;;3.00;1.57;;;;;;;;;;5072118;28;20035;-64
2021/11/22 00:38:56;;;;;;;2.80;1.30;;;;;;;;;;5069918;28;20082;-65
2021/11/22 00:41:24;;;;;;;2.03;1.07;;;;;;;;;;5086054;28;20090;-64
2021/11/22 00:43:51;;;;;;;1.40;0.70;;;;;;;;;;5087151;28;20479;-65
2021/11/22 00:46:17;;;;;;;1.30;0.87;;;;;;;;;;5086947;28;20378;-64
2021/11/22 00:48:44;;;;;;;0.93;0.50;;;;;;;;;;5088429;28;20466;-63
2021/11/22 00:51:11;;;;;;;2.30;0.50;;;;;;;;;;5092197;28;20024;-68
2021/11/22 00:53:37;;;;;;;1.80;0.63;;;;;;;;;;5092471;28;20028;-65
2021/11/22 00:56:04;;;;;;;1.30;0.70;;;;;;;;;;5094263;28;20044;-65
2021/11/22 00:58:31;;;;;;;1.80;0.60;;;;;;;;;;5096359;28;20024;-65
2021/11/22 01:00:58;;;;;;;1.47;0.43;;;;;;;;;;5094923;28;20016;-65
2021/11/22 01:03:25;;;;;;;3.00;1.00;;;;;;;;;;5090582;28;20032;-65
2021/11/22 01:05:51;;;;;;;1.10;0.70;;;;;;;;;;5091011;28;20032;-66
2021/11/22 01:08:18;;;;;;;0.90;0.60;;;;;;;;;;5090602;28;20020;-66
2021/11/22 01:10:45;;;;;;;2.43;0.60;;;;;;;;;;5091202;28;20032;-65
2021/11/22 01:13:13;;;;;;;1.30;0.50;;;;;;;;;;5095986;28;20108;-65
2021/11/22 01:15:40;;;;;;;0.50;0.50;;;;;;;;;;5096095;28;20444;-65
2021/11/22 01:18:07;;;;;;;1.53;0.60;;;;;;;;;;5095887;28;20024;-65
2021/11/22 01:20:34;;;;;;;1.83;0.83;;;;;;;;;;5095689;28;20028;-65
2021/11/22 01:23:06;;;;;;;3.67;1.30;;;;;;;;;;5095548;28;20367;-65
2021/11/22 01:25:33;;;;;;;4.07;2.07;;;;;;;;;;5090506;28;20421;-65
2021/11/22 01:28:00;;;;;;;4.73;1.70;;;;;;;;;;5090617;28;20027;-65
2021/11/22 01:30:27;;;;;;;3.47;1.40;;;;;;;;;;5090477;28;20052;-65
2021/11/22 01:32:53;;;;;;;4.47;1.43;;;;;;;;;;5090851;28;20027;-65
2021/11/22 01:35:20;;;;;;;3.10;1.33;;;;;;;;;;5095729;28;20016;-65
2021/11/22 01:37:47;;;;;;;5.17;1.60;;;;;;;;;;5094895;28;20024;-65
2021/11/22 01:40:16;;;;;;;3.10;1.00;;;;;;;;;;5095676;28;20031;-65
2021/11/22 01:42:43;;;;;;;2.07;1.10;;;;;;;;;;5095410;28;20074;-65
2021/11/22 01:45:11;;;;;;;2.93;1.10;;;;;;;;;;5095461;28;20050;-65
2021/11/22 01:47:38;;;;;;;4.13;1.33;;;;;;;;;;5090329;28;20027;-65
2021/11/22 01:50:05;;;;;;;5.43;1.60;;;;;;;;;;5090306;28;20020;-65
2021/11/22 01:52:35;;;;;;;8.00;1.10;;;;;;;;;;5089753;28;20482;-65
2021/11/22 01:55:01;;;;;;;5.40;1.40;;;;;;;;;;5088669;28;20383;-65
2021/11/22 01:57:28;;;;;;;4.60;1.60;;;;;;;;;;5095211;28;20107;-64
2021/11/22 01:59:55;;;;;;;2.70;1.07;;;;;;;;;;5084062;28;20024;-65
2021/11/22 02:02:22;;;;;;;4.00;1.43;;;;;;;;;;5075220;28;20475;-65
2021/11/22 02:04:49;;;;;;;1.73;0.70;;;;;;;;;;5073823;28;20033;-65
2021/11/22 02:07:15;;;;;;;1.60;0.83;;;;;;;;;;5074911;28;20379;-65
2021/11/22 02:09:47;;;;;;;4.37;1.10;;;;;;;;;;5069155;28;20387;-65
2021/11/22 02:12:13;;;;;;;1.47;0.70;;;;;;;;;;5069364;28;20395;-65
2021/11/22 02:14:40;;;;;;;1.13;0.80;;;;;;;;;;5069371;28;20400;-65
2021/11/22 02:17:09;;;;;;;2.57;0.90;;;;;;;;;;5068188;28;20040;-64
2021/11/22 02:19:38;;;;;;;2.03;1.20;;;;;;;;;;5073666;28;20418;-65
2021/11/22 02:22:05;;;;;;;1.73;0.70;;;;;;;;;;5074747;28;20024;-64
2021/11/22 02:24:33;;;;;;;1.97;0.73;;;;;;;;;;5074409;28;20150;-65
2021/11/22 02:26:59;;;;;;;2.53;0.90;;;;;;;;;;5073425;28;20028;-64
2021/11/22 02:29:26;;;;;;;1.53;0.77;;;;;;;;;;5082165;28;20024;-64
2021/11/22 02:31:53;;;;;;;1.50;0.80;;;;;;;;;;5089990;28;20024;-64
2021/11/22 02:34:21;;;;;;;1.67;0.80;;;;;;;;;;5089062;28;20062;-64
2021/11/22 02:36:48;;;;;;;3.80;0.70;;;;;;;;;;5089203;28;20037;-65
2021/11/22 02:39:15;;;;;;;0.70;0.50;;;;;;;;;;5089413;28;20505;-64
2021/11/22 02:41:42;;;;;;;1.73;0.60;;;;;;;;;;5092567;28;20560;-65
2021/11/22 02:44:09;;;;;;;0.90;0.60;;;;;;;;;;5094258;28;20375;-64
2021/11/22 02:46:35;;;;;;;6.70;0.83;;;;;;;;;;5094504;28;20024;-64
2021/11/22 02:49:02;;;;;;;0.97;0.47;;;;;;;;;;5094292;28;20048;-64
2021/11/22 02:51:29;;;;;;;1.47;0.60;;;;;;;;;;5094425;28;20024;-64
2021/11/22 02:54:02;;;;;;;0.83;0.50;;;;;;;;;;5090308;28;20020;-64
2021/11/22 02:56:34;;;;;;;1.30;0.60;;;;;;;;;;5088713;28;20028;-65
2021/11/22 02:59:03;;;;;;;1.30;0.63;;;;;;;;;;5086524;28;20465;-64
2021/11/22 03:01:30;;;;;;;1.20;0.50;;;;;;;;;;5087280;28;20032;-65
2021/11/22 03:03:57;;;;;;;3.23;0.90;;;;;;;;;;5091877;28;20360;-65
2021/11/22 03:06:24;;;;;;;1.43;0.80;;;;;;;;;;5093837;28;20047;-64
2021/11/22 03:08:51;;;;;;;4.03;0.93;;;;;;;;;;5093860;28;20035;-65
2021/11/22 03:11:19;;;;;;;8.80;2.87;;;;;;;;;;5093856;28;20394;-64
2021/11/22 03:13:46;;;;;;;2.87;1.10;;;;;;;;;;5093845;28;20028;-65
2021/11/22 03:16:14;;;;;;;6.33;1.67;;;;;;;;;;5090257;28;20089;-65
2021/11/22 03:18:41;;;;;;;5.07;1.40;;;;;;;;;;5088188;28;20039;-65
2021/11/22 03:21:08;;;;;;;4.83;1.70;;;;;;;;;;5088306;28;20360;-65
2021/11/22 03:23:35;;;;;;;2.97;1.20;;;;;;;;;;5088507;28;20028;-65
2021/11/22 03:26:03;;;;;;;2.73;1.20;;;;;;;;;;5090392;28;20024;-65
2021/11/22 03:28:32;;;;;;;3.13;1.30;;;;;;;;;;5093114;28;20024;-64
2021/11/22 03:31:00;;;;;;;2.50;1.47;;;;;;;;;;5093487;28;20020;-64
2021/11/22 03:33:27;;;;;;;3.00;1.47;;;;;;;;;;5093453;28;20024;-64
2021/11/22 03:35:55;;;;;;;3.20;1.00;;;;;;;;;;5093510;28;20036;-64
2021/11/22 03:38:24;;;;;;;5.73;1.37;;;;;;;;;;5090431;28;20020;-64
2021/11/22 03:40:53;;;;;;;1.40;0.73;;;;;;;;;;5087754;28;20032;-64
2021/11/22 03:43:33;;;;;;;5.00;0.87;;;;;;;;;;5087930;28;20379;-64
2021/11/22 03:46:00;;;;;;;3.17;0.90;;;;;;;;;;5088008;28;20056;-64
2021/11/22 03:48:27;;;;;;;1.67;0.60;;;;;;;;;;5090804;28;20027;-64
2021/11/22 03:50:54;;;;;;;5.03;0.80;;;;;;;;;;5093204;28;20374;-64
2021/11/22 03:53:21;;;;;;;5.67;0.70;;;;;;;;;;5092959;28;20028;-64
2021/11/22 03:55:47;;;;;;;0.80;0.40;;;;;;;;;;5093045;28;20032;-64
2021/11/22 03:58:14;;;;;;;0.80;0.70;;;;;;;;;;5092615;28;20016;-64
2021/11/22 04:00:41;;;;;;;1.37;0.63;;;;;;;;;;5072865;28;20108;-64
2021/11/22 04:03:08;;;;;;;0.43;0.40;;;;;;;;;;5067614;28;20062;-65
2021/11/22 04:05:34;;;;;;;1.20;0.60;;;;;;;;;;5067613;28;20419;-64
2021/11/22 04:08:03;;;;;;;2.10;0.80;;;;;;;;;;5067573;28;20387;-64
2021/11/22 04:10:30;;;;;;;1.03;0.70;;;;;;;;;;5077138;28;20544;-64
2021/11/22 04:12:59;;;;;;;1.23;0.60;;;;;;;;;;5092833;28;20032;-64
2021/11/22 04:15:26;;;;;;;0.60;0.50;;;;;;;;;;5092464;28;20097;-64
2021/11/22 04:17:54;;;;;;;1.37;0.60;;;;;;;;;;5092881;28;20020;-65
2021/11/22 04:20:20;;;;;;;0.53;0.50;;;;;;;;;;5091493;28;20492;-64
2021/11/22 04:22:47;;;;;;;2.73;0.73;;;;;;;;;;5090110;28;20089;-64
2021/11/22 04:25:15;;;;;;;1.13;0.90;;;;;;;;;;5087521;28;20020;-65
2021/11/22 04:27:42;;;;;;;1.00;0.50;;;;;;;;;;5087377;28;20034;-64
2021/11/22 04:30:11;;;;;;;2.17;0.60;;;;;;;;;;5086259;28;20024;-64
2021/11/22 04:32:38;;;;;;;4.70;0.80;;;;;;;;;;5088953;28;20031;-65
2021/11/22 04:35:06;;;;;;;4.10;0.63;;;;;;;;;;5092610;28;20101;-64
2021/11/22 04:37:33;;;;;;;3.23;0.60;;;;;;;;;;5092454;28;20024;-64
2021/11/22 04:40:00;;;;;;;3.33;0.60;;;;;;;;;;5092222;28;20020;-64
2021/11/22 04:42:27;;;;;;;2.93;0.70;;;;;;;;;;5092407;28;20055;-65
2021/11/22 04:44:54;;;;;;;1.50;0.70;;;;;;;;;;5090550;28;20024;-64
2021/11/22 04:47:21;;;;;;;4.27;1.03;;;;;;;;;;5086786;28;20023;-61
2021/11/22 04:49:48;;;;;;;3.27;0.60;;;;;;;;;;5087089;28;20039;-63
2021/11/22 04:52:15;;;;;;;1.43;0.70;;;;;;;;;;5085978;28;20028;-65
2021/11/22 04:54:43;;;;;;;1.37;0.70;;;;;;;;;;5087093;28;20028;-62
2021/11/22 04:57:11;;;;;;;2.87;1.00;;;;;;;;;;5090168;28;20032;-62
2021/11/22 04:59:38;;;;;;;2.00;0.90;;;;;;;;;;5090334;28;20028;-64
2021/11/22 05:02:05;;;;;;;2.97;1.40;;;;;;;;;;5089945;28;20023;-64
2021/11/22 05:04:32;;;;;;;2.47;1.10;;;;;;;;;;5090387;28;20020;-63
2021/11/22 05:06:59;;;;;;;2.33;1.00;;;;;;;;;;5089437;28;20044;-63
2021/11/22 05:09:26;;;;;;;1.73;0.90;;;;;;;;;;5085747;28;20020;-63
2021/11/22 05:11:53;;;;;;;1.27;0.70;;;;;;;;;;5086204;28;20394;-63
2021/11/22 05:14:20;;;;;;;2.93;0.90;;;;;;;;;;5086845;28;20035;-63
2021/11/22 05:16:46;;;;;;;5.77;1.47;;;;;;;;;;5087164;28;20028;-63
2021/11/22 05:19:14;;;;;;;2.80;1.00;;;;;;;;;;5091746;28;20117;-63
2021/11/22 05:21:41;;;;;;;4.37;1.17;;;;;;;;;;5092234;28;20066;-63
2021/11/22 05:24:08;;;;;;;2.17;1.03;;;;;;;;;;5091704;28;20020;-64
2021/11/22 05:26:35;;;;;;;3.57;1.23;;;;;;;;;;5092006;28;20095;-63
2021/11/22 05:29:03;;;;;;;1.20;0.80;;;;;;;;;;5091098;28;20017;-63
2021/11/22 05:31:31;;;;;;;2.17;0.90;;;;;;;;;;5086559;28;20020;-63
2021/11/22 05:33:58;;;;;;;1.70;1.00;;;;;;;;;;5086012;28;20115;-63
2021/11/22 05:36:24;;;;;;;2.70;0.90;;;;;;;;;;5086330;28;20040;-63
2021/11/22 05:38:51;;;;;;;2.13;1.10;;;;;;;;;;5086651;28;20098;-63
2021/11/22 05:41:18;;;;;;;3.63;1.30;;;;;;;;;;5093094;28;20020;-63
2021/11/22 05:43:45;;;;;;;2.00;1.10;;;;;;;;;;5095681;28;20406;-63
2021/11/22 05:46:12;;;;;;;4.60;0.90;;;;;;;;;;5095706;28;20032;-63
2021/11/22 05:48:38;;;;;;;3.13;1.20;;;;;;;;;;5095707;28;20024;-63
2021/11/22 05:51:08;;;;;;;4.57;1.00;;;;;;;;;;5094806;28;20111;-63
2021/11/22 05:53:36;;;;;;;2.03;1.00;;;;;;;;;;5090052;28;20127;-63
2021/11/22 05:56:06;;;;;;;2.17;1.20;;;;;;;;;;5090148;28;20028;-63
2021/11/22 05:58:34;;;;;;;3.20;1.40;;;;;;;;;;5089786;28;20058;-62
2021/11/22 06:01:01;;;;;;;1.60;0.80;;;;;;;;;;5090059;28;20022;-63
2021/11/22 06:03:29;;;;;;;1.83;0.87;;;;;;;;;;5095342;28;20028;-63
2021/11/22 06:05:56;;;;;;;1.93;0.90;;;;;;;;;;5095263;28;20093;-63
2021/11/22 06:08:22;;;;;;;2.57;1.10;;;;;;;;;;5095226;28;20070;-63
2021/11/22 06:10:50;;;;;;;2.23;1.00;;;;;;;;;;5095039;28;20024;-62
2021/11/22 06:13:20;;;;;;;3.00;1.20;;;;;;;;;;5095116;28;20017;-63
2021/11/22 06:15:47;;;;;;;1.90;1.10;;;;;;;;;;5089485;28;20036;-62
2021/11/22 06:18:15;;;;;;;2.03;1.13;;;;;;;;;;5089184;28;20020;-63
2021/11/22 06:20:42;;;;;;;1.80;0.77;;;;;;;;;;5089380;28;20100;-63
2021/11/22 06:23:09;;;;;;;3.43;1.00;;;;;;;;;;5089509;28;20035;-63
2021/11/22 06:25:35;;;;;;;2.50;1.20;;;;;;;;;;5094697;28;20092;-63
2021/11/22 06:28:02;;;;;;;2.57;1.20;;;;;;;;;;5094867;28;20047;-62
2021/11/22 06:30:29;;;;;;;4.37;1.40;;;;;;;;;;5095012;28;20024;-62
2021/11/22 06:32:57;;;;;;;1.47;0.80;;;;;;;;;;5094580;28;20024;-62
2021/11/22 06:35:24;;;;;;;3.57;0.80;;;;;;;;;;5094265;28;20035;-62
2021/11/22 06:37:51;;;;;;;3.23;1.10;;;;;;;;;;5089352;28;20391;-62
2021/11/22 06:40:18;;;;;;;2.50;1.00;;;;;;;;;;5089440;28;20024;-63
2021/11/22 06:42:46;;;;;;;3.73;0.80;;;;;;;;;;5089423;28;20032;-63
2021/11/22 06:45:13;;;;;;;1.80;1.00;;;;;;;;;;5089075;28;20101;-62
2021/11/22 06:47:40;;;;;;;2.27;1.60;;;;;;;;;;5093396;28;20035;-64
2021/11/22 06:50:07;;;;;;;1.83;1.00;;;;;;;;;;5094018;28;20028;-62
2021/11/22 06:52:34;;;;;;;1.63;0.87;;;;;;;;;;5093354;28;20103;-63
2021/11/22 06:55:01;;;;;;;3.27;1.03;;;;;;;;;;5094491;28;20035;-62
2021/11/22 06:57:28;;;;;;;3.63;1.10;;;;;;;;;;5094224;28;20024;-63
2021/11/22 06:59:55;;;;;;;2.20;1.03;;;;;;;;;;5089329;28;20024;-62
2021/11/22 07:02:24;;;;;;;2.47;0.87;;;;;;;;;;5089114;28;20510;-63
2021/11/22 07:04:51;;;;;;;1.73;0.90;;;;;;;;;;5088782;28;20024;-63
2021/11/22 07:07:18;;;;;;;1.83;1.03;;;;;;;;;;5088423;28;20020;-62
2021/11/22 07:09:46;;;;;;;1.60;0.80;;;;;;;;;;5092809;28;20024;-62
2021/11/22 07:12:13;;;;;;;2.47;1.20;;;;;;;;;;5093915;28;20359;-62
2021/11/22 07:14:41;;;;;;;1.60;0.87;;;;;;;;;;5094028;28;20047;-63
2021/11/22 07:17:08;;;;;;;1.43;0.90;;;;;;;;;;5093397;28;20032;-62
2021/11/22 07:19:35;;;;;;;2.60;1.10;;;;;;;;;;5093842;28;20020;-62
2021/11/22 07:22:06;;;;;;;1.83;1.00;;;;;;;;;;5088665;28;20048;-63
2021/11/22 07:24:33;;;;;;;6.33;0.80;;;;;;;;;;5088165;28;20027;-63
2021/11/22 07:27:00;;;;;;;2.27;0.90;;;;;;;;;;5088395;28;20547;-63
2021/11/22 07:29:27;;;;;;;3.00;0.97;;;;;;;;;;5088266;28;20031;-62
2021/11/22 07:31:54;;;;;;;2.00;1.13;;;;;;;;;;5092144;28;20050;-63
2021/11/22 07:34:20;;;;;;;2.07;1.10;;;;;;;;;;5093613;28;20114;-62
2021/11/22 07:36:47;;;;;;;1.60;0.77;;;;;;;;;;5093039;28;20031;-62
2021/11/22 07:39:14;;;;;;;1.73;0.87;;;;;;;;;;5093546;28;20020;-62
2021/11/22 07:41:41;;;;;;;1.77;0.80;;;;;;;;;;5093147;28;20031;-62
2021/11/22 07:44:08;;;;;;;0.83;0.70;;;;;;;;;;5089310;28;20043;-63
2021/11/22 07:46:35;;;;;;;2.43;1.70;;;;;;;;;;5087616;28;20028;-62
2021/11/22 07:49:01;;;;;;;3.07;1.40;;;;;;;;;;5087904;28;20058;-63
2021/11/22 07:51:28;;;;;;;3.80;1.00;;;;;;;;;;5087985;28;20032;-62
2021/11/22 07:53:55;;;;;;;3.90;1.23;;;;;;;;;;5090863;28;20542;-63
2021/11/22 07:56:22;;;;;;;2.27;1.10;;;;;;;;;;5093097;28;20490;-62
2021/11/22 07:58:48;;;;;;;2.63;1.30;;;;;;;;;;5093113;28;20023;-62
2021/11/22 08:01:15;;;;;;;2.40;1.10;;;;;;;;;;5093020;28;20019;-63
2021/11/22 08:03:42;;;;;;;1.33;0.87;;;;;;;;;;5093002;28;20105;-62
2021/11/22 08:06:09;;;;;;;4.67;1.30;;;;;;;;;;5089147;28;20375;-62
2021/11/22 08:08:37;;;;;;;2.50;1.00;;;;;;;;;;5087281;28;20028;-62
2021/11/22 08:11:17;;;;;;;3.60;1.77;;;;;;;;;;5087389;28;20036;-62
2021/11/22 08:13:44;;;;;;;2.97;1.33;;;;;;;;;;5087386;28;20028;-62
2021/11/22 08:16:12;;;;;;;3.53;1.27;;;;;;;;;;5090399;28;20368;-62
2021/11/22 08:18:39;;;;;;;2.57;1.17;;;;;;;;;;5092748;28;20035;-62
2021/11/22 08:21:06;;;;;;;2.40;1.07;;;;;;;;;;5092362;28;20382;-62
2021/11/22 08:23:33;;;;;;;1.43;0.93;;;;;;;;;;5092565;28;20095;-62
2021/11/22 08:25:59;;;;;;;1.77;1.10;;;;;;;;;;5092828;28;20024;-62
2021/11/22 08:28:26;;;;;;;1.90;1.40;;;;;;;;;;5088784;28;20020;-62
2021/11/22 08:30:53;;;;;;;2.60;1.10;;;;;;;;;;5087535;28;20032;-62
2021/11/22 08:33:20;;;;;;;2.63;1.30;;;;;;;;;;5086920;28;20039;-62
2021/11/22 08:35:48;;;;;;;3.97;1.00;;;;;;;;;;5087210;28;20036;-63
2021/11/22 08:38:15;;;;;;;2.40;1.27;;;;;;;;;;5089929;28;20057;-62
2021/11/22 08:40:43;;;;;;;2.80;1.70;;;;;;;;;;5092559;28;20028;-62
2021/11/22 08:43:11;;;;;;;1.83;1.10;;;;;;;;;;5092460;28;20099;-62
2021/11/22 08:45:38;;;;;;;2.13;1.27;;;;;;;;;;5092170;28;20020;-62
2021/11/22 08:48:05;;;;;;;2.17;0.90;;;;;;;;;;5092306;28;20032;-62
2021/11/22 08:50:32;;;;;;;2.30;1.07;;;;;;;;;;5088619;28;20031;-62
2021/11/22 08:52:59;;;;;;;3.10;1.30;;;;;;;;;;5086880;28;20024;-62
2021/11/22 08:55:26;;;;;;;1.70;1.10;;;;;;;;;;5086893;28;20027;-63
2021/11/22 08:57:54;;;;;;;5.73;0.93;;;;;;;;;;5086965;28;20471;-62
2021/11/22 09:00:39;;;;;;;2.03;1.23;;;;;;;;;;5089867;28;20142;-62
2021/11/22 09:03:06;;;;;;;;;;;;;;;;;;5092538;28;20020;-62
2021/11/22 09:05:32;;;;;;;1.50;0.80;;;;;;;;;;5091151;28;19904;-62
2021/11/22 09:07:59;;;;;;;1.80;1.00;;;;;;;;;;5092323;28;20132;-62
2021/11/22 09:10:26;;;;;;;2.63;1.20;;;;;;;;;;5092069;28;20028;-62
2021/11/22 09:12:53;;;;;;;1.40;0.90;;;;;;;;;;5088403;28;20031;-62
2021/11/22 09:15:21;;;;;;;1.80;1.00;;;;;;;;;;5086759;28;20043;-62
2021/11/22 09:17:48;;;;;;;5.67;1.10;;;;;;;;;;5090859;28;20077;-62
2021/11/22 09:20:14;;;;;;;1.67;0.90;;;;;;;;;;5090413;28;20069;-62
2021/11/22 09:22:41;;;;;;;3.60;1.57;;;;;;;;;;5093604;28;20024;-62
2021/11/22 09:25:09;;;;;;;1.90;1.07;;;;;;;;;;5095919;28;20043;-62
2021/11/22 09:27:36;;;;;;;4.10;1.10;;;;;;;;;;5095984;28;20410;-62
2021/11/22 09:30:05;;;;;;;1.77;1.10;;;;;;;;;;5095979;28;20112;-62
2021/11/22 09:32:31;;;;;;;2.13;1.10;;;;;;;;;;5096031;28;20468;-62
2021/11/22 09:34:58;;;;;;;1.50;0.90;;;;;;;;;;5092002;28;20088;-62
2021/11/22 09:37:25;;;;;;;2.87;1.23;;;;;;;;;;5090478;28;20280;-62
2021/11/22 09:39:53;;;;;;;1.87;0.93;;;;;;;;;;5090324;28;20302;-62
2021/11/22 09:42:20;;;;;;;1.30;0.90;;;;;;;;;;5090593;28;20093;-63
2021/11/22 09:44:48;;;;;;;1.30;0.83;;;;;;;;;;5093425;28;20439;-62
2021/11/22 09:47:15;;;;;;;3.13;1.13;;;;;;;;;;5095649;28;20051;-62
2021/11/22 09:49:42;;;;;;;1.77;1.00;;;;;;;;;;5095725;28;20028;-62
2021/11/22 09:52:08;;;;;;;2.17;1.20;;;;;;;;;;5095180;28;20108;-62
2021/11/22 09:54:35;;;;;;;1.60;1.10;;;;;;;;;;5095025;28;20402;-62
2021/11/22 09:57:02;;;;;;;2.50;1.20;;;;;;;;;;5092187;28;20347;-62
2021/11/22 09:59:29;;;;;;;2.17;1.10;;;;;;;;;;5090160;28;20028;-62
2021/11/22 10:01:56;;;;;;;1.97;1.07;;;;;;;;;;5090047;28;20257;-62
2021/11/22 10:04:28;;;;;;;3.37;1.10;;;;;;;;;;5090047;28;20259;-62
2021/11/22 10:06:56;;;;;;;1.80;1.00;;;;;;;;;;5092517;28;20253;-62
2021/11/22 10:09:49;;;;;;;2.07;0.90;;;;;;;;;;5095282;28;20024;-62
2021/11/22 10:12:24;;;;;;;1.90;1.03;;;;;;;;;;5091893;28;20402;-62
2021/11/22 10:14:52;;;;;;;1.83;1.25;;;;;;;;;;5094710;28;20331;-62
2021/11/22 10:17:27;;;;;;;1.33;0.90;;;;;;;;;;5095003;28;20039;-62
2021/11/22 10:20:09;;;;;;;2.63;1.17;;;;;;;;;;5090325;28;20261;-62
2021/11/22 10:22:54;;;;;;;1.57;1.00;;;;;;;;;;5089687;28;20393;-62
2021/11/22 10:25:32;;;;;;;3.90;1.25;;;;;;;;;;5089713;28;20284;-62
2021/11/22 10:28:04;;;;;;;2.20;1.07;;;;;;;;;;5087914;28;20471;-62
2021/11/22 10:30:32;;;;;;;1.87;1.07;;;;;;;;;;5094863;28;20289;-62
2021/11/22 10:33:00;;;;;;;1.77;1.00;;;;;;;;;;5094333;28;20038;-62
2021/11/22 10:35:28;;;;;;;2.70;1.37;;;;;;;;;;5094531;28;20299;-62
2021/11/22 10:38:03;;;;;;;2.07;1.20;;;;;;;;;;5094700;28;20604;-62
2021/11/22 10:40:31;;;;;;;1.63;1.23;;;;;;;;;;5093462;28;20338;-62
2021/11/22 10:42:58;;;;;;;2.60;1.30;;;;;;;;;;5089356;28;20024;-62
2021/11/22 10:45:26;;;;;;;2.90;1.00;;;;;;;;;;5088747;28;20683;-63
2021/11/22 10:48:00;;;;;;;5.33;1.13;;;;;;;;;;5088867;28;20253;-62
2021/11/22 10:50:30;;;;;;;3.30;1.00;;;;;;;;;;5089898;28;20257;-62
2021/11/22 10:53:01;;;;;;;2.20;1.03;;;;;;;;;;5094279;28;20676;-62
2021/11/22 10:55:30;;;;;;;1.37;0.90;;;;;;;;;;5093071;28;20632;-62
2021/11/22 10:58:00;;;;;;;2.23;1.10;;;;;;;;;;5093764;28;20257;-62
2021/11/22 11:00:31;;;;;;;1.47;0.93;;;;;;;;;;5094372;28;20760;-62
2021/11/22 11:02:59;;;;;;;1.60;1.07;;;;;;;;;;5092318;28;20317;-62
2021/11/22 11:05:30;;;;;;;1.33;1.00;;;;;;;;;;5088461;28;20260;-62
2021/11/22 11:08:00;;;;;;;1.70;1.00;;;;;;;;;;5088370;28;20268;-62
2021/11/22 11:10:27;;;;;;;2.30;1.20;;;;;;;;;;5088421;28;20273;-62
2021/11/22 11:12:55;;;;;;;2.27;1.30;;;;;;;;;;5089991;28;20292;-62
2021/11/22 11:15:26;;;;;;;1.70;1.07;;;;;;;;;;5093969;28;20261;-62
2021/11/22 11:17:53;;;;;;;1.33;0.80;;;;;;;;;;5093968;28;20252;-62
2021/11/22 11:20:22;;;;;;;1.87;1.03;;;;;;;;;;5093957;28;20291;-62
2021/11/22 11:22:49;;;;;;;1.40;1.00;;;;;;;;;;5093483;28;20332;-63
2021/11/22 11:25:17;;;;;;;1.27;0.80;;;;;;;;;;5091722;28;20272;-62
2021/11/22 11:27:45;;;;;;;1.20;0.87;;;;;;;;;;5088388;28;20302;-62
2021/11/22 11:30:14;;;;;;;1.67;1.23;;;;;;;;;;5088307;28;20256;-62
2021/11/22 11:32:40;;;;;;;2.20;1.00;;;;;;;;;;5088330;28;20301;-64
2021/11/22 11:35:15;;;;;;;2.53;1.23;;;;;;;;;;5089460;28;20306;-62
2021/11/22 11:38:00;;;;;;;2.23;1.07;;;;;;;;;;5093061;28;20282;-63
2021/11/22 11:40:36;;;;;;;2.92;1.40;;;;;;;;;;5093102;28;20256;-62
2021/11/22 11:43:22;;;;;;;3.07;1.57;;;;;;;;;;5093371;28;20025;-62
2021/11/22 11:45:54;;;;;;;2.80;1.40;;;;;;;;;;5093605;28;20310;-62
2021/11/22 11:48:39;;;;;;;2.20;1.13;;;;;;;;;;5089507;28;20321;-62
2021/11/22 11:51:06;;;;;;;0.93;0.68;;;;;;;;;;5087972;28;20298;-62
2021/11/22 11:53:33;;;;;;;4.23;1.50;;;;;;;;;;5087633;28;20112;-62
2021/11/22 11:56:08;;;;;;;2.50;1.10;;;;;;;;;;5087542;28;20834;-63
2021/11/22 11:58:34;;;;;;;3.50;1.05;;;;;;;;;;5091705;28;20256;-62
2021/11/22 12:01:12;;;;;;;3.63;1.50;;;;;;;;;;5093227;28;20424;-62
2021/11/22 12:03:59;;;;;;;4.97;1.30;;;;;;;;;;5093101;28;20661;-62
2021/11/22 12:06:49;;;;;;;6.13;2.37;;;;;;;;;;5082358;28;20264;-62
2021/11/22 12:09:38;;;;;;;3.23;1.47;;;;;;;;;;5065898;28;20305;-62
2021/11/22 12:12:14;;;;;;;4.30;2.63;;;;;;;;;;5067214;28;20303;-62
2021/11/22 12:14:55;;;;;;;4.20;2.03;;;;;;;;;;5067130;28;20658;-62
2021/11/22 12:17:34;;;;;;;5.67;1.60;;;;;;;;;;5066900;28;20292;-62
2021/11/22 12:20:08;;;;;;;3.43;1.50;;;;;;;;;;5069754;28;20277;-62
2021/11/22 12:22:36;;;;;;;4.07;2.70;;;;;;;;;;5072476;28;20304;-62
2021/11/22 12:25:04;;;;;;;6.67;2.90;;;;;;;;;;5072365;28;20732;-62
2021/11/22 12:27:30;;;;;;;6.00;3.40;;;;;;;;;;5084975;28;20257;-62
2021/11/22 12:30:02;;;;;;;8.53;4.77;;;;;;;;;;5092068;28;20284;-61
2021/11/22 12:32:31;;;;;;;4.13;2.30;;;;;;;;;;5089340;28;20275;-62
2021/11/22 12:35:02;;;;;;;7.70;3.50;;;;;;;;;;5087186;28;20779;-62
2021/11/22 12:37:30;;;;;;;10.17;3.10;;;;;;;;;;5087110;28;20391;-61
2021/11/22 12:40:17;;;;;;;8.60;3.70;;;;;;;;;;5087142;28;20282;-62
2021/11/22 12:42:48;;;;;;;4.33;2.30;;;;;;;;;;5090347;28;20261;-62
2021/11/22 12:45:17;;;;;;;5.63;2.53;;;;;;;;;;5092406;28;20260;-62
2021/11/22 12:47:44;;;;;;;3.87;2.37;;;;;;;;;;5092213;28;20264;-61
2021/11/22 12:50:17;;;;;;;6.03;3.07;;;;;;;;;;5091861;28;20739;-61
2021/11/22 12:53:03;;;;;;;8.77;3.60;;;;;;;;;;5092250;28;20252;-62
2021/11/22 13:07:32;;;;;;;5.60;1.80;;;;;;;;;;5061988;27;2183047;-62
2021/11/22 13:09:59;;;;;;;6.13;1.73;;;;;;;;;;5104371;28;20197;-62
2021/11/22 13:12:33;;;;;;;4.67;1.80;;;;;;;;;;5103186;28;20755;-62
2021/11/22 13:15:21;;;;;;;2.60;1.30;;;;;;;;;;5104030;28;20816;-62
2021/11/22 13:17:48;;;;;;;3.13;1.43;;;;;;;;;;5104852;28;20260;-62
2021/11/22 13:20:15;;;;;;;3.73;1.40;;;;;;;;;;5109581;28;20310;-62
2021/11/22 13:22:41;;;;;;;4.80;2.30;;;;;;;;;;5108493;28;20264;-62
2021/11/22 13:25:22;;;;;;;8.60;1.90;;;;;;;;;;5109408;28;20261;-62
2021/11/22 13:28:08;;;;;;;4.60;2.03;;;;;;;;;;5109474;28;20347;-62
2021/11/22 13:30:35;;;;;;;5.97;1.60;;;;;;;;;;5106471;28;20351;-62
2021/11/22 13:33:02;;;;;;;5.20;1.93;;;;;;;;;;5103805;28;20257;-62
2021/11/22 13:35:29;;;;;;;6.93;1.70;;;;;;;;;;5103574;28;20280;-63
2021/11/22 13:38:15;;;;;;;4.13;1.67;;;;;;;;;;5103851;28;20288;-63
2021/11/22 13:40:43;;;;;;;2.67;1.67;;;;;;;;;;5106511;28;20327;-62
2021/11/22 13:43:15;;;;;;;5.87;1.63;;;;;;;;;;5109060;28;20024;-63
2021/11/22 13:45:52;;;;;;;2.87;1.70;;;;;;;;;;5109206;28;20463;-63
2021/11/22 13:48:19;;;;;;;4.97;1.70;;;;;;;;;;5108886;28;20459;-63
2021/11/22 13:50:47;;;;;;;7.33;1.73;;;;;;;;;;5108225;28;20020;-63
2021/11/22 13:53:14;;;;;;;3.67;1.63;;;;;;;;;;5105254;28;20032;-63
2021/11/22 13:55:42;;;;;;;2.57;1.53;;;;;;;;;;5103349;28;20032;-62
2021/11/22 13:58:13;;;;;;;2.27;1.13;;;;;;;;;;5103135;28;20024;-63
2021/11/22 14:00:46;;;;;;;2.30;1.30;;;;;;;;;;5103174;28;20378;-63
2021/11/22 14:03:13;;;;;;;4.03;1.27;;;;;;;;;;5106134;28;20027;-63
2021/11/22 14:05:39;;;;;;;2.60;1.00;;;;;;;;;;5108774;28;20016;-63
2021/11/22 14:08:08;;;;;;;4.80;1.23;;;;;;;;;;5095623;28;20047;-63
2021/11/22 14:10:38;;;;;;;2.43;1.07;;;;;;;;;;5095288;28;20028;-63
2021/11/22 14:13:09;;;;;;;1.43;1.10;;;;;;;;;;5095165;28;20099;-63
2021/11/22 14:15:37;;;;;;;1.83;1.10;;;;;;;;;;5090310;28;20043;-63
2021/11/22 14:18:04;;;;;;;1.50;1.00;;;;;;;;;;5089344;28;20111;-63
2021/11/22 14:20:31;;;;;;;1.00;0.70;;;;;;;;;;5088872;28;20027;-63
2021/11/22 14:23:05;;;;;;;1.03;0.70;;;;;;;;;;5088920;28;20212;-63
2021/11/22 14:25:33;;;;;;;1.67;0.90;;;;;;;;;;5093133;28;20031;-63
2021/11/22 14:28:16;;;;;;;3.43;0.93;;;;;;;;;;5095041;28;20473;-63
2021/11/22 14:30:44;;;;;;;2.07;0.80;;;;;;;;;;5094852;28;20031;-63
2021/11/22 14:33:12;;;;;;;1.30;0.90;;;;;;;;;;5094923;28;20027;-63
2021/11/22 14:35:45;;;;;;;5.30;1.00;;;;;;;;;;5094541;28;20035;-63
2021/11/22 14:38:13;;;;;;;2.13;1.20;;;;;;;;;;5089482;28;20644;-63
2021/11/22 14:40:41;;;;;;;2.53;1.37;;;;;;;;;;5088725;28;20038;-64
2021/11/22 14:43:14;;;;;;;2.30;1.17;;;;;;;;;;5088924;28;20034;-63
2021/11/22 14:45:42;;;;;;;2.57;1.60;;;;;;;;;;5088709;28;20028;-63
2021/11/22 14:48:19;;;;;;;3.30;1.50;;;;;;;;;;5093794;28;20465;-63
2021/11/22 14:50:59;;;;;;;3.93;1.83;;;;;;;;;;5093893;28;20150;-63
2021/11/22 14:53:26;;;;;;;3.57;1.70;;;;;;;;;;5094412;28;20032;-64
2021/11/22 14:56:12;;;;;;;3.47;2.00;;;;;;;;;;5094238;28;20389;-64
2021/11/22 14:58:40;;;;;;;5.83;1.80;;;;;;;;;;5092903;28;20031;-64
2021/11/22 15:01:17;;;;;;;6.30;2.40;;;;;;;;;;5088569;28;20021;-64
2021/11/22 15:03:43;;;;;;;5.27;1.60;;;;;;;;;;5088584;28;20470;-64
2021/11/22 15:06:27;;;;;;;3.53;2.03;;;;;;;;;;5088492;28;20024;-63